Skip Navigation Links Skip Navigation Links

Current Weather

Camp Pendleton Mcas/Munn Field, Oceanside, Calif.

For information only: do not use for flight planning or navigation.
Latest weather
Observation time Monday, October 18, 2021 11:55 PM PDT
Local time Tuesday, October 19, 2021 12:43 AM PDT
Flight conditions Visual Meteorological Conditions
Winds
Wind direction East-Northeast (60°)
Wind speed 5 mph
Visibility 10 mi.
Sky condition
Ceiling unlimited
Sky clear
Temperature 48°F
Dewpoint 42°F
Altimeter 30.01 in.Hg
Derived measurements
Relative humidity 80%
Wind chill 46°F
Density altitude -628 ft.
Sea-level pressure 30.00 in.Hg
Remarks
Automated weather observing station with precipitation discriminator.
METAR KNFG 190655Z 06004KT 10SM CLR 09/06 A3001 RMK AO2 SLP160 T00890056

Settings

Location code

InnerDrive.Weather 4.0.6770.0 Release CLR 4.0.30319.42000
Copyright ©2018 Inner Drive Technology. All rights reserved. Portions Copyright ©1986-2018 David Braverman.

Find weather

Site navigation


Skip Navigation Links

Place info

Page info

PayPal - The safer, easier way to pay online!

Return home.

Copyright ©2021 Inner Drive Technology. Purveyors of fine, hand-crafted computer software. Page printed 2021-10-19T07:43:08 UTC.